createdAt,value
2022-08-04T00:00:40.333Z,7.72
2022-08-04T00:04:10.364Z,7.53
2022-08-04T00:08:02.333Z,7.28
2022-08-04T00:11:24.354Z,7.10
2022-08-04T00:14:48.310Z,8.52
2022-08-04T00:18:18.376Z,7.57
2022-08-04T00:21:39.343Z,7.00
2022-08-04T00:25:00.377Z,6.57
2022-08-04T00:28:21.350Z,6.82
2022-08-04T00:31:54.940Z,7.57
2022-08-04T00:35:18.334Z,8.15
2022-08-04T00:38:39.354Z,7.15
2022-08-04T00:42:29.371Z,6.90
2022-08-04T00:46:17.195Z,7.63
2022-08-04T00:49:53.365Z,7.88
2022-08-04T00:53:37.373Z,7.75
2022-08-04T00:57:30.145Z,7.85
2022-08-04T01:00:59.392Z,7.47
2022-08-04T01:04:25.355Z,8.60
2022-08-04T01:08:10.372Z,8.25
2022-08-04T01:12:03.357Z,7.93
2022-08-04T01:15:56.393Z,7.80
2022-08-04T01:19:34.375Z,9.40
2022-08-04T01:23:30.374Z,9.13
2022-08-04T01:27:15.372Z,8.77
2022-08-04T01:30:40.381Z,9.07
2022-08-04T01:34:04.848Z,9.15
2022-08-04T01:37:32.385Z,9.23
2022-08-04T01:40:55.369Z,8.82
2022-08-04T01:44:18.400Z,9.48
2022-08-04T01:47:43.411Z,8.05
2022-08-04T01:51:06.348Z,9.07
2022-08-04T01:54:31.398Z,9.07
2022-08-04T01:57:57.371Z,7.60
2022-08-04T02:01:20.450Z,8.73
2022-08-04T02:04:41.400Z,9.05
2022-08-04T02:08:21.438Z,9.45
2022-08-04T02:11:36.402Z,8.95
2022-08-04T02:15:09.392Z,9.80
2022-08-04T02:18:42.422Z,9.40
2022-08-04T02:22:16.379Z,8.43
2022-08-04T02:25:39.383Z,8.50
2022-08-04T02:29:01.372Z,9.13
2022-08-04T02:32:34.421Z,8.60
2022-08-04T02:35:59.501Z,10.35
2022-08-04T02:39:25.614Z,9.00
2022-08-04T02:42:47.361Z,9.35
2022-08-04T02:46:18.015Z,8.73
2022-08-04T02:49:40.627Z,9.45
2022-08-04T02:53:09.922Z,8.90
2022-08-04T02:56:33.371Z,9.48
2022-08-04T03:00:27.412Z,8.63
2022-08-04T03:04:06.384Z,9.30
2022-08-04T03:07:52.376Z,8.73
2022-08-04T03:11:39.421Z,8.88
2022-08-04T03:15:27.435Z,9.40
2022-08-04T03:19:23.380Z,9.88
2022-08-04T03:23:18.625Z,9.48
2022-08-04T03:26:48.379Z,9.85
2022-08-04T03:30:19.417Z,9.77
2022-08-04T03:34:08.381Z,8.15
2022-08-04T03:37:46.385Z,9.18
2022-08-04T03:41:54.961Z,9.93
2022-08-04T03:45:38.453Z,10.55
2022-08-04T03:49:19.376Z,10.95
2022-08-04T03:53:04.449Z,10.25
2022-08-04T03:57:03.391Z,9.82
2022-08-04T04:00:44.439Z,9.55
2022-08-04T04:04:11.411Z,10.88
2022-08-04T04:08:13.802Z,10.02
2022-08-04T04:12:10.426Z,10.17
2022-08-04T04:16:08.393Z,9.27
2022-08-04T04:20:06.523Z,9.55
2022-08-04T04:23:46.474Z,9.18
2022-08-04T04:27:20.579Z,9.77
2022-08-04T04:30:55.485Z,9.93
2022-08-04T04:34:33.495Z,10.07
2022-08-04T04:38:09.407Z,9.57
2022-08-04T04:41:48.452Z,9.73
2022-08-04T04:45:33.419Z,10.35
2022-08-04T04:49:25.507Z,9.50
2022-08-04T04:52:55.426Z,7.60
2022-08-04T04:56:32.440Z,7.25
2022-08-04T05:00:02.471Z,7.03
2022-08-04T05:03:55.437Z,6.40
2022-08-04T05:07:37.402Z,7.15
2022-08-04T05:11:17.430Z,8.85
2022-08-04T05:14:43.393Z,6.57
2022-08-04T05:18:07.425Z,5.75
2022-08-04T05:21:55.469Z,6.03
2022-08-04T05:28:57.451Z,5.10
2022-08-04T05:32:28.440Z,5.40
2022-08-04T05:36:23.442Z,5.40
2022-08-04T05:39:43.486Z,5.38
2022-08-04T05:43:10.439Z,6.30
2022-08-04T05:46:32.432Z,4.53
2022-08-04T05:50:01.501Z,5.68
2022-08-04T05:53:24.415Z,3.75
2022-08-04T05:56:47.439Z,4.43
2022-08-04T06:00:38.818Z,5.60
2022-08-04T06:07:28.429Z,4.72
2022-08-04T06:10:53.524Z,10.60
2022-08-04T06:14:18.483Z,3.58
2022-08-04T06:19:56.436Z,3.95
2022-08-04T06:21:55.459Z,3.97
2022-08-04T06:25:18.458Z,4.53
2022-08-04T06:28:41.433Z,3.67
2022-08-04T06:32:29.559Z,3.67
2022-08-04T06:36:10.556Z,4.68
2022-08-04T06:39:32.483Z,4.38
2022-08-04T06:42:54.436Z,4.03
2022-08-04T06:46:17.446Z,4.20
2022-08-04T06:49:32.455Z,5.07
2022-08-04T06:53:13.486Z,3.65
2022-08-04T06:56:35.443Z,4.47
2022-08-04T07:03:37.455Z,3.65
2022-08-04T07:06:52.470Z,4.13
2022-08-04T07:10:18.038Z,4.63
2022-08-04T07:13:45.646Z,3.78
2022-08-04T07:17:34.969Z,3.92
2022-08-04T07:21:35.476Z,4.32
2022-08-04T07:24:56.479Z,3.33
2022-08-04T07:28:18.446Z,3.80
2022-08-04T07:31:40.450Z,3.90
2022-08-04T07:35:05.505Z,4.38
2022-08-04T07:38:27.751Z,4.13
2022-08-04T07:41:49.481Z,3.25
2022-08-04T07:45:11.495Z,3.00
2022-08-04T07:48:32.534Z,4.00
2022-08-04T07:51:57.517Z,3.10
2022-08-04T07:55:19.528Z,3.38
2022-08-04T07:58:40.515Z,3.97
2022-08-04T08:02:02.497Z,3.30
2022-08-04T08:05:26.492Z,3.10
2022-08-04T08:08:51.533Z,3.10
2022-08-04T08:12:35.299Z,3.70
2022-08-04T08:15:53.522Z,3.88
2022-08-04T08:19:14.492Z,3.80
2022-08-04T08:22:35.521Z,4.35
2022-08-04T08:25:56.561Z,4.40
2022-08-04T08:29:17.503Z,3.60
2022-08-04T08:32:38.504Z,5.38
2022-08-04T08:36:35.630Z,3.67
2022-08-04T08:40:40.237Z,5.40
2022-08-04T08:44:36.306Z,4.68
2022-08-04T08:48:33.473Z,4.60
2022-08-04T08:52:09.534Z,5.70
2022-08-04T08:55:54.530Z,5.47
2022-08-04T08:59:30.475Z,7.28
2022-08-04T09:03:13.511Z,4.40
2022-08-04T09:07:02.499Z,4.80
2022-08-04T09:10:40.486Z,4.32
2022-08-04T09:14:09.486Z,4.32
2022-08-04T09:17:55.497Z,4.80
2022-08-04T09:21:23.541Z,4.68
2022-08-04T09:25:22.512Z,5.43
2022-08-04T09:28:54.317Z,4.95
2022-08-04T09:32:30.554Z,4.28
2022-08-04T09:36:00.577Z,4.60
2022-08-04T09:39:53.510Z,4.57
2022-08-04T09:43:21.517Z,5.82
2022-08-04T09:46:50.515Z,5.67
2022-08-04T09:50:15.591Z,4.40
2022-08-04T09:53:45.524Z,5.00
2022-08-04T09:57:42.518Z,5.88
2022-08-04T10:01:22.457Z,5.60
2022-08-04T10:04:47.511Z,5.93
2022-08-04T10:08:28.524Z,6.38
2022-08-04T10:12:08.568Z,6.38
2022-08-04T10:15:47.551Z,5.25
2022-08-04T10:19:23.706Z,5.88
2022-08-04T10:23:09.203Z,5.33
2022-08-04T10:26:41.507Z,5.45
2022-08-04T10:30:02.558Z,5.63
2022-08-04T10:33:33.543Z,6.47
2022-08-04T10:37:19.699Z,7.50
2022-08-04T10:41:34.723Z,5.97
2022-08-04T10:44:59.527Z,5.75
2022-08-04T10:48:36.342Z,5.40
2022-08-04T10:52:06.542Z,5.50
2022-08-04T10:56:06.530Z,5.63
2022-08-04T10:59:13.536Z,5.60
2022-08-04T11:02:45.599Z,5.55
2022-08-04T11:06:12.536Z,5.88
2022-08-04T11:09:35.577Z,6.53
2022-08-04T11:12:59.578Z,6.38
2022-08-04T11:16:28.538Z,6.25
2022-08-04T11:24:00.616Z,6.15
2022-08-04T11:27:27.570Z,5.72
2022-08-04T11:30:59.602Z,5.60
2022-08-04T11:34:35.572Z,6.18
2022-08-04T11:38:10.544Z,5.90
2022-08-04T11:41:35.584Z,6.20
2022-08-04T11:45:13.574Z,6.32
2022-08-04T11:48:42.573Z,6.15
2022-08-04T11:52:04.542Z,6.03
2022-08-04T11:55:29.586Z,6.95
2022-08-04T11:58:51.546Z,6.60
2022-08-04T12:02:31.670Z,6.85
2022-08-04T12:06:08.581Z,7.35
2022-08-04T12:09:30.700Z,7.47
2022-08-04T12:13:12.584Z,7.07
2022-08-04T12:17:00.596Z,7.78
2022-08-04T12:20:31.415Z,7.50
2022-08-04T12:24:00.765Z,7.13
2022-08-04T12:27:35.582Z,8.15
2022-08-04T12:31:11.681Z,7.13
2022-08-04T12:35:00.619Z,7.05
2022-08-04T12:38:26.591Z,7.22
2022-08-04T12:41:52.554Z,7.53
2022-08-04T12:45:20.616Z,7.95
2022-08-04T12:48:35.595Z,7.72
2022-08-04T12:52:08.495Z,7.17
2022-08-04T12:55:31.550Z,7.18
2022-08-04T12:59:18.292Z,6.68
2022-08-04T13:02:36.617Z,8.00
2022-08-04T13:05:59.572Z,7.07
2022-08-04T13:09:28.554Z,6.47
2022-08-04T13:12:51.564Z,6.82
2022-08-04T13:16:21.580Z,6.88
2022-08-04T13:19:44.583Z,6.68
2022-08-04T13:23:05.563Z,6.97
2022-08-04T13:26:42.532Z,6.43
2022-08-04T13:30:13.726Z,6.82
2022-08-04T13:33:54.594Z,6.88
2022-08-04T13:37:20.859Z,14.85
2022-08-04T13:40:43.593Z,6.90
2022-08-04T13:44:18.444Z,8.43
2022-08-04T13:51:11.721Z,7.18
2022-08-04T13:54:32.617Z,7.70
2022-08-04T13:58:00.171Z,12.02
2022-08-04T14:02:39.604Z,6.75
2022-08-04T14:06:21.599Z,7.13
2022-08-04T14:10:04.067Z,7.18
2022-08-04T14:13:25.583Z,6.53
2022-08-04T14:16:46.594Z,7.55
2022-08-04T14:20:13.569Z,6.68
2022-08-04T14:23:34.612Z,7.20
2022-08-04T14:27:12.590Z,6.97
2022-08-04T14:30:50.581Z,8.32
2022-08-04T14:34:18.696Z,8.40
2022-08-04T14:37:48.389Z,7.43
2022-08-04T14:41:13.563Z,7.47
2022-08-04T14:44:34.601Z,7.90
2022-08-04T14:48:00.606Z,7.90
2022-08-04T14:51:36.674Z,8.23
2022-08-04T14:58:36.510Z,8.13
2022-08-04T15:02:00.879Z,8.80
2022-08-04T15:05:55.389Z,9.88
2022-08-04T15:09:04.609Z,9.23
2022-08-04T15:12:25.595Z,8.15
2022-08-04T15:16:02.304Z,8.07
2022-08-04T15:19:28.573Z,11.00
2022-08-04T15:22:50.600Z,8.75
2022-08-04T15:26:16.604Z,8.57
2022-08-04T15:33:22.153Z,10.77
2022-08-04T15:37:09.632Z,8.70
2022-08-04T15:40:35.600Z,8.70
2022-08-04T15:44:21.611Z,8.02
2022-08-04T15:47:42.596Z,8.52
2022-08-04T15:51:16.919Z,8.15
2022-08-04T15:54:37.645Z,7.95
2022-08-04T15:58:23.586Z,8.40
2022-08-04T16:02:10.926Z,8.48
2022-08-04T16:05:28.595Z,9.45
2022-08-04T16:09:01.630Z,12.50
2022-08-04T16:12:44.509Z,10.27
2022-08-04T16:16:08.604Z,9.10
2022-08-04T16:19:35.058Z,9.80
2022-08-04T16:23:03.665Z,8.40
2022-08-04T16:26:30.599Z,9.10
2022-08-04T16:29:56.622Z,9.23
2022-08-04T16:33:21.740Z,9.70
2022-08-04T16:37:09.629Z,8.95
2022-08-04T16:44:02.591Z,9.55
2022-08-04T16:47:23.752Z,9.40
2022-08-04T16:50:45.646Z,8.93
2022-08-04T16:54:06.627Z,11.27
2022-08-04T16:57:28.621Z,17.70
2022-08-04T17:00:52.647Z,9.60
2022-08-04T17:04:13.596Z,10.30
2022-08-04T17:07:34.665Z,10.75
2022-08-04T17:10:59.668Z,10.82
2022-08-04T17:14:20.664Z,9.95
2022-08-04T17:18:06.464Z,11.50
2022-08-04T17:21:28.676Z,12.70
2022-08-04T17:24:51.889Z,12.13
2022-08-04T17:28:27.538Z,10.98
2022-08-04T17:31:53.315Z,15.13
2022-08-04T17:35:14.676Z,15.43
2022-08-04T17:38:35.669Z,11.52
2022-08-04T17:41:56.628Z,10.55
2022-08-04T17:49:26.654Z,10.13
2022-08-04T17:52:49.660Z,10.10
2022-08-04T17:56:11.649Z,9.82
2022-08-04T17:59:56.106Z,11.23
2022-08-04T18:03:23.163Z,9.93
2022-08-04T18:06:43.670Z,11.52
2022-08-04T18:10:32.946Z,11.30
2022-08-04T18:13:53.637Z,10.27
2022-08-04T18:17:17.871Z,11.68
2022-08-04T18:20:55.638Z,10.85
2022-08-04T18:24:20.822Z,10.70
2022-08-04T18:28:10.779Z,11.93
2022-08-04T18:31:35.668Z,10.05
2022-08-04T18:34:56.639Z,9.05
2022-08-04T18:38:26.889Z,10.18
2022-08-04T18:42:00.859Z,12.35
2022-08-04T18:45:23.650Z,13.38
2022-08-04T18:48:54.664Z,10.38
2022-08-04T18:52:17.667Z,8.98
2022-08-04T18:55:56.827Z,11.07
2022-08-04T18:59:25.699Z,10.15
2022-08-04T19:02:46.673Z,10.40
2022-08-04T19:06:08.701Z,11.50
2022-08-04T19:09:51.122Z,9.73
2022-08-04T19:13:22.326Z,10.27
2022-08-04T19:16:47.695Z,10.65
2022-08-04T19:20:15.813Z,11.02
2022-08-04T19:24:28.648Z,10.93
2022-08-04T19:27:26.711Z,10.32
2022-08-04T19:31:07.694Z,11.23
2022-08-04T19:34:32.968Z,12.18
2022-08-04T19:41:22.737Z,10.87
2022-08-04T19:44:47.724Z,12.20
2022-08-04T19:48:18.679Z,10.98
2022-08-04T19:51:44.032Z,11.20
2022-08-04T19:55:10.598Z,11.88
2022-08-04T19:58:31.698Z,11.93
2022-08-04T20:01:53.699Z,13.00
2022-08-04T20:05:15.756Z,11.95
2022-08-04T20:08:48.409Z,12.70
2022-08-04T20:12:09.779Z,12.02
2022-08-04T20:15:30.762Z,12.98
2022-08-04T20:18:56.812Z,12.00
2022-08-04T20:26:00.670Z,11.82
2022-08-04T20:29:39.961Z,12.05
2022-08-04T20:33:01.750Z,11.77
2022-08-04T20:36:24.768Z,11.93
2022-08-04T20:39:54.968Z,11.57
2022-08-04T20:43:15.790Z,11.38
2022-08-04T20:46:36.718Z,11.77
2022-08-04T20:49:57.726Z,10.63
2022-08-04T20:53:21.708Z,12.07
2022-08-04T20:57:02.677Z,11.43
2022-08-04T21:00:29.815Z,11.05
2022-08-04T21:07:36.434Z,11.88
2022-08-04T21:11:03.708Z,11.80
2022-08-04T21:14:29.085Z,13.05
2022-08-04T21:17:59.414Z,12.57
2022-08-04T21:21:24.780Z,13.15
2022-08-04T21:24:56.741Z,12.85
2022-08-04T21:28:20.443Z,12.30
2022-08-04T21:31:50.983Z,12.73
2022-08-04T21:35:15.186Z,11.80
2022-08-04T21:38:36.738Z,10.43
2022-08-04T21:42:28.032Z,11.52
2022-08-04T21:45:38.731Z,13.02
2022-08-04T21:48:59.785Z,12.30
2022-08-04T21:52:20.727Z,13.57
2022-08-04T21:56:05.696Z,13.43
2022-08-04T21:59:28.506Z,12.98
2022-08-04T22:02:53.358Z,13.18
2022-08-04T22:06:17.438Z,13.30
2022-08-04T22:09:41.351Z,12.45
2022-08-04T22:12:55.816Z,12.70
2022-08-04T22:16:12.734Z,12.75
2022-08-04T22:19:50.135Z,12.50
2022-08-04T22:23:19.114Z,14.70
2022-08-04T22:26:40.723Z,12.07
2022-08-04T22:30:01.718Z,12.95
2022-08-04T22:33:16.759Z,13.15
2022-08-04T22:36:39.728Z,12.52
2022-08-04T22:40:01.847Z,13.05
2022-08-04T22:43:33.640Z,12.98
2022-08-04T22:46:54.835Z,13.57
2022-08-04T22:50:26.959Z,13.80
2022-08-04T22:53:49.722Z,12.27
2022-08-04T22:57:10.866Z,13.63
2022-08-04T23:00:34.887Z,12.88
2022-08-04T23:03:56.750Z,12.65
2022-08-04T23:07:17.799Z,11.98
2022-08-04T23:10:44.755Z,12.93
2022-08-04T23:14:05.743Z,12.98
2022-08-04T23:17:27.713Z,12.38
2022-08-04T23:20:49.760Z,11.98
2022-08-04T23:24:13.748Z,11.65
2022-08-04T23:27:40.330Z,12.30
2022-08-04T23:31:04.797Z,13.15
2022-08-04T23:34:25.796Z,11.95
2022-08-04T23:37:56.100Z,11.23
2022-08-04T23:41:55.359Z,12.43
2022-08-04T23:45:07.767Z,12.25
2022-08-04T23:48:28.764Z,12.68
2022-08-04T23:51:49.887Z,12.70
2022-08-04T23:55:07.816Z,13.40
2022-08-04T23:58:36.778Z,13.40
